Time;durP1;ratioP1;P1;durP2;ratioP2;P2;SDS_P1;SDS_P2;PMS_P1;PMS_P2;Temp;Humidity;BMP_temperature;BMP_pressure;BME280_temperature;BME280_humidity;BME280_pressure;Samples;Min_cycle;Max_cycle;Signal;HPM_P1;HPM_P2
2023/08/29 00:00:18;;;;;;;3.33;1.70;;;15.30;99.90;;;;;;5084202;28;20030;-71
2023/08/29 00:02:44;;;;;;;2.45;1.58;;;15.30;99.90;;;;;;5089207;28;20039;-71
2023/08/29 00:05:10;;;;;;;3.67;1.63;;;15.30;99.90;;;;;;5088404;28;20032;-71
2023/08/29 00:07:36;;;;;;;2.72;1.65;;;15.20;99.90;;;;;;5076714;28;20137;-71
2023/08/29 00:10:03;;;;;;;3.58;1.75;;;15.20;99.90;;;;;;5089692;28;20099;-71
2023/08/29 00:12:28;;;;;;;3.33;1.60;;;15.20;99.90;;;;;;5083044;28;20021;-71
2023/08/29 00:14:56;;;;;;;3.25;1.65;;;15.20;99.90;;;;;;5088922;28;20028;-71
2023/08/29 00:17:22;;;;;;;4.53;1.60;;;15.20;99.90;;;;;;5082418;28;20073;-71
2023/08/29 00:19:48;;;;;;;3.53;1.63;;;15.20;99.90;;;;;;5079482;28;20028;-71
2023/08/29 00:22:14;;;;;;;5.65;1.70;;;15.10;99.90;;;;;;5082662;28;20108;-71
2023/08/29 00:24:43;;;;;;;4.72;1.60;;;15.10;99.90;;;;;;5078827;28;20034;-71
2023/08/29 00:27:09;;;;;;;4.00;1.77;;;15.10;99.90;;;;;;5078308;28;20360;-71
2023/08/29 00:29:35;;;;;;;2.20;1.33;;;15.10;99.90;;;;;;5070280;28;20036;-71
2023/08/29 00:32:01;;;;;;;2.92;1.83;;;15.10;99.90;;;;;;5089313;28;20027;-71
2023/08/29 00:34:27;;;;;;;3.80;1.70;;;15.10;99.90;;;;;;5088450;28;20028;-71
2023/08/29 00:36:53;;;;;;;3.70;1.73;;;15.10;99.90;;;;;;5090230;28;20081;-71
2023/08/29 00:39:19;;;;;;;2.85;1.52;;;15.10;99.90;;;;;;5088328;28;20024;-71
2023/08/29 00:41:49;;;;;;;3.78;1.55;;;15.10;99.90;;;;;;5075748;28;20031;-71
2023/08/29 00:44:16;;;;;;;4.20;1.58;;;15.00;99.90;;;;;;5075359;28;20032;-71
2023/08/29 00:46:43;;;;;;;2.92;1.63;;;15.00;99.90;;;;;;5086142;28;20020;-71
2023/08/29 00:49:09;;;;;;;5.07;1.70;;;15.00;99.90;;;;;;5087632;28;20032;-71
2023/08/29 00:51:35;;;;;;;2.10;1.48;;;15.00;99.90;;;;;;5083952;28;20071;-71
2023/08/29 00:54:03;;;;;;;2.85;1.60;;;15.00;99.90;;;;;;5088945;28;20079;-71
2023/08/29 00:56:29;;;;;;;2.60;1.75;;;15.00;99.90;;;;;;5088754;28;20327;-71
2023/08/29 00:58:54;;;;;;;2.20;1.60;;;14.90;99.90;;;;;;5082967;28;20396;-71
2023/08/29 01:01:21;;;;;;;5.28;1.73;;;14.90;99.90;;;;;;5081279;28;20604;-71
2023/08/29 01:03:47;;;;;;;2.17;1.50;;;14.90;99.90;;;;;;5077339;28;20097;-71
2023/08/29 01:06:14;;;;;;;2.47;1.52;;;14.90;99.90;;;;;;5080714;28;20055;-71
2023/08/29 01:08:43;;;;;;;3.88;1.90;;;14.90;99.90;;;;;;5074166;28;20028;-71
2023/08/29 01:11:25;;;;;;;3.15;1.60;;;14.90;99.90;;;;;;5082793;28;20028;-71
2023/08/29 01:14:05;;;;;;;4.45;1.90;;;14.90;99.90;;;;;;5084993;28;20043;-71
2023/08/29 01:16:43;;;;;;;2.13;1.92;;;14.90;99.90;;;;;;5081019;28;20043;-71
2023/08/29 01:19:20;;;;;;;2.38;1.77;;;14.90;99.90;;;;;;5089939;28;20035;-71
2023/08/29 01:22:16;;;;;;;3.75;1.70;;;14.90;99.90;;;;;;5081585;28;20024;-71
2023/08/29 01:24:58;;;;;;;6.20;1.92;;;14.90;99.90;;;;;;5083932;28;20058;-71
2023/08/29 01:27:25;;;;;;;5.15;1.80;;;14.90;99.90;;;;;;5082127;28;20032;-71
2023/08/29 01:29:51;;;;;;;5.60;2.00;;;14.90;99.90;;;;;;5072349;28;20040;-71
2023/08/29 01:32:18;;;;;;;6.00;2.17;;;14.90;99.90;;;;;;5075825;28;20159;-71
2023/08/29 01:34:44;;;;;;;3.88;2.25;;;14.90;99.90;;;;;;5084398;28;20069;-71
2023/08/29 01:37:10;;;;;;;4.30;2.58;;;14.80;99.90;;;;;;5086531;28;20024;-71
2023/08/29 01:39:36;;;;;;;7.57;2.90;;;14.80;99.90;;;;;;5076955;28;20025;-71
2023/08/29 01:42:02;;;;;;;6.97;2.92;;;14.80;99.90;;;;;;5089408;28;20035;-71
2023/08/29 01:44:28;;;;;;;5.63;3.05;;;14.80;99.90;;;;;;5084809;28;20475;-71
2023/08/29 01:46:53;;;;;;;5.60;2.90;;;14.80;99.90;;;;;;5080386;28;20030;-71
2023/08/29 01:49:19;;;;;;;5.72;3.10;;;14.70;99.90;;;;;;5084956;28;20044;-71
2023/08/29 01:51:45;;;;;;;5.30;3.03;;;14.70;99.90;;;;;;5087679;28;20081;-71
2023/08/29 01:54:11;;;;;;;4.35;3.00;;;14.70;99.90;;;;;;5087549;28;20095;-71
2023/08/29 01:56:39;;;;;;;8.93;3.15;;;14.70;99.90;;;;;;5088551;28;20020;-71
2023/08/29 01:59:06;;;;;;;4.13;3.22;;;14.70;99.90;;;;;;5089340;28;20097;-71
2023/08/29 02:01:32;;;;;;;5.40;3.20;;;14.60;99.90;;;;;;5081801;28;20446;-71
2023/08/29 02:03:58;;;;;;;4.50;3.30;;;14.60;99.90;;;;;;5081269;28;20024;-71
2023/08/29 02:06:24;;;;;;;6.38;3.80;;;14.60;99.90;;;;;;5081505;28;20024;-71
2023/08/29 02:08:49;;;;;;;5.72;4.57;;;14.60;99.90;;;;;;5076416;28;20103;-71
2023/08/29 02:11:15;;;;;;;7.40;3.83;;;14.60;99.90;;;;;;5081103;28;20584;-71
2023/08/29 02:13:40;;;;;;;7.88;3.63;;;14.60;99.90;;;;;;5088178;28;20402;-71
2023/08/29 02:16:06;;;;;;;7.18;3.53;;;14.70;99.90;;;;;;5088705;28;20025;-71
2023/08/29 02:18:32;;;;;;;5.28;3.80;;;14.70;99.90;;;;;;5078080;28;20328;-71
2023/08/29 02:20:57;;;;;;;5.88;3.80;;;14.70;99.90;;;;;;5082153;28;20110;-71
2023/08/29 02:23:23;;;;;;;7.82;3.35;;;14.70;99.90;;;;;;5080636;28;20107;-71
2023/08/29 02:26:00;;;;;;;5.20;3.92;;;14.70;99.90;;;;;;5084798;28;20031;-71
2023/08/29 02:28:26;;;;;;;6.97;3.63;;;14.70;99.90;;;;;;5076586;28;20070;-71
2023/08/29 02:30:52;;;;;;;6.22;3.97;;;14.80;99.90;;;;;;5086863;28;20545;-71
2023/08/29 02:33:17;;;;;;;9.45;3.67;;;14.80;99.90;;;;;;5088380;28;20059;-71
2023/08/29 02:35:43;;;;;;;7.20;3.70;;;14.80;99.90;;;;;;5090012;28;20114;-71
2023/08/29 02:38:09;;;;;;;5.68;3.63;;;14.90;99.90;;;;;;5092392;28;20028;-71
2023/08/29 02:40:35;;;;;;;4.93;3.25;;;14.90;99.90;;;;;;5082823;28;20077;-71
2023/08/29 02:43:00;;;;;;;6.53;3.67;;;14.90;99.90;;;;;;5091625;28;20032;-71
2023/08/29 02:45:26;;;;;;;4.70;3.42;;;14.90;99.90;;;;;;5085962;28;20030;-71
2023/08/29 02:47:52;;;;;;;6.00;3.15;;;15.00;99.90;;;;;;5090727;28;20489;-71
2023/08/29 02:50:17;;;;;;;6.10;2.85;;;15.00;99.90;;;;;;5089031;28;20035;-71
2023/08/29 02:52:43;;;;;;;8.80;3.25;;;15.00;99.90;;;;;;5086320;28;20039;-71
2023/08/29 02:55:09;;;;;;;5.80;3.42;;;15.10;99.90;;;;;;5089820;28;20283;-71
2023/08/29 02:57:34;;;;;;;4.63;3.25;;;15.10;99.90;;;;;;5086498;28;20135;-71
2023/08/29 03:00:00;;;;;;;4.90;3.35;;;15.10;99.90;;;;;;5085116;28;20032;-71
2023/08/29 03:02:25;;;;;;;6.60;3.80;;;15.10;99.90;;;;;;5086696;28;20031;-71
2023/08/29 03:04:51;;;;;;;6.78;3.38;;;15.10;99.90;;;;;;5081162;28;20379;-71
2023/08/29 03:07:17;;;;;;;4.82;3.70;;;15.10;99.90;;;;;;5086133;28;20068;-71
2023/08/29 03:09:42;;;;;;;3.70;3.03;;;15.10;99.90;;;;;;5080196;28;20103;-71
2023/08/29 03:12:08;;;;;;;6.22;2.90;;;15.10;99.90;;;;;;5084383;28;20712;-71
2023/08/29 03:14:33;;;;;;;5.10;3.40;;;15.20;99.90;;;;;;5089488;28;20126;-71
2023/08/29 03:16:59;;;;;;;4.18;3.28;;;15.20;99.90;;;;;;5089653;28;20020;-71
2023/08/29 03:19:25;;;;;;;6.15;2.90;;;15.20;99.90;;;;;;5090795;28;20035;-71
2023/08/29 03:21:50;;;;;;;6.90;3.00;;;15.20;99.90;;;;;;5089076;28;20125;-71
2023/08/29 03:24:16;;;;;;;6.00;3.13;;;15.20;99.90;;;;;;5078795;28;20099;-71
2023/08/29 03:26:41;;;;;;;4.70;3.20;;;15.20;99.90;;;;;;5077313;28;20054;-71
2023/08/29 03:29:07;;;;;;;5.18;3.08;;;15.20;99.90;;;;;;5090070;28;20024;-71
2023/08/29 03:31:33;;;;;;;7.13;2.95;;;15.20;99.90;;;;;;5086824;28;20078;-71
2023/08/29 03:33:59;;;;;;;3.90;2.72;;;15.20;99.90;;;;;;5090881;28;20031;-71
2023/08/29 03:36:25;;;;;;;3.60;2.63;;;15.20;99.90;;;;;;5084088;28;20020;-71
2023/08/29 03:38:50;;;;;;;4.70;2.97;;;15.20;99.90;;;;;;5090132;28;20423;-71
2023/08/29 03:41:16;;;;;;;3.92;2.70;;;15.20;99.90;;;;;;5091884;28;20093;-71
2023/08/29 03:43:41;;;;;;;6.18;3.35;;;15.10;99.90;;;;;;5089713;28;20103;-71
2023/08/29 03:46:08;;;;;;;5.38;2.92;;;15.10;99.90;;;;;;5077825;28;20024;-71
2023/08/29 03:48:34;;;;;;;4.25;2.78;;;15.10;99.90;;;;;;5085584;28;20048;-71
2023/08/29 03:51:07;;;;;;;6.85;3.05;;;15.10;99.90;;;;;;5088659;28;20383;-71
2023/08/29 03:53:36;;;;;;;6.95;3.17;;;15.10;99.90;;;;;;5084779;28;20078;-71
2023/08/29 03:56:07;;;;;;;3.45;2.72;;;15.10;99.90;;;;;;5074381;28;20063;-71
2023/08/29 03:58:33;;;;;;;5.15;3.40;;;15.10;99.90;;;;;;5075119;28;20140;-71
2023/08/29 04:00:59;;;;;;;5.70;2.80;;;15.10;99.90;;;;;;5090471;28;20440;-71
2023/08/29 04:03:25;;;;;;;5.53;2.90;;;15.10;99.90;;;;;;5088115;28;20082;-71
2023/08/29 04:05:51;;;;;;;5.18;2.60;;;15.10;99.90;;;;;;5091556;28;20024;-71
2023/08/29 04:08:17;;;;;;;6.97;3.10;;;15.10;99.90;;;;;;5088480;28;20503;-71
2023/08/29 04:10:42;;;;;;;5.03;2.90;;;15.00;99.90;;;;;;5089735;28;20049;-71
2023/08/29 04:13:08;;;;;;;5.95;3.40;;;15.00;99.90;;;;;;5091339;28;20490;-71
2023/08/29 04:15:35;;;;;;;4.90;3.10;;;15.00;99.90;;;;;;5091471;28;20024;-70
2023/08/29 04:18:01;;;;;;;6.88;3.55;;;14.90;99.90;;;;;;5088651;28;20020;-70
2023/08/29 04:20:28;;;;;;;6.40;3.50;;;14.90;99.90;;;;;;5085623;28;20040;-71
2023/08/29 04:22:54;;;;;;;3.95;3.00;;;14.90;99.90;;;;;;5091093;28;20023;-71
2023/08/29 04:25:20;;;;;;;5.22;3.20;;;14.90;99.90;;;;;;5091468;28;20020;-70
2023/08/29 04:27:50;;;;;;;4.32;3.05;;;14.80;99.90;;;;;;5080071;28;20374;-71
2023/08/29 04:30:16;;;;;;;5.68;3.38;;;14.80;99.90;;;;;;5092004;28;20031;-71
2023/08/29 04:32:41;;;;;;;4.93;2.85;;;14.80;99.90;;;;;;5086857;28;20032;-71
2023/08/29 04:35:08;;;;;;;5.80;3.08;;;14.70;99.90;;;;;;5074407;28;20020;-71
2023/08/29 04:37:34;;;;;;;4.75;2.80;;;14.70;99.90;;;;;;5084917;28;20016;-71
2023/08/29 04:40:00;;;;;;;5.13;3.78;;;14.70;99.90;;;;;;5090995;28;20043;-71
2023/08/29 04:42:27;;;;;;;6.47;4.28;;;14.70;99.90;;;;;;5082829;28;20055;-71
2023/08/29 04:44:53;;;;;;;6.88;3.90;;;14.70;99.90;;;;;;5081023;28;20103;-71
2023/08/29 04:47:22;;;;;;;8.93;4.03;;;14.70;99.90;;;;;;5086128;28;20040;-71
2023/08/29 04:49:48;;;;;;;7.07;4.22;;;14.70;99.90;;;;;;5087311;28;20067;-71
2023/08/29 04:52:14;;;;;;;6.57;4.05;;;14.70;99.90;;;;;;5075755;28;20052;-70
2023/08/29 04:54:40;;;;;;;5.63;4.13;;;14.60;99.90;;;;;;5086991;28;20025;-70
2023/08/29 04:57:05;;;;;;;12.25;4.97;;;14.60;99.90;;;;;;5078489;28;20089;-71
2023/08/29 04:59:31;;;;;;;6.43;4.00;;;14.60;99.90;;;;;;5088239;28;20028;-71
2023/08/29 05:01:57;;;;;;;5.40;3.97;;;14.60;99.90;;;;;;5090294;28;20059;-71
2023/08/29 05:04:22;;;;;;;6.88;4.32;;;14.60;99.90;;;;;;5090429;28;20016;-71
2023/08/29 05:06:48;;;;;;;7.38;4.43;;;14.60;99.90;;;;;;5086645;28;20021;-71
2023/08/29 05:09:14;;;;;;;7.43;4.22;;;14.60;99.90;;;;;;5083051;28;20517;-71
2023/08/29 05:11:40;;;;;;;8.10;4.53;;;14.60;99.90;;;;;;5073913;28;20025;-71
2023/08/29 05:14:05;;;;;;;6.55;4.35;;;14.60;99.90;;;;;;5083802;28;20016;-71
2023/08/29 05:16:32;;;;;;;7.38;4.07;;;14.60;99.90;;;;;;5085330;28;20383;-71
2023/08/29 05:18:58;;;;;;;6.45;4.63;;;14.60;99.90;;;;;;5077210;28;20013;-71
2023/08/29 05:21:24;;;;;;;8.20;4.82;;;14.60;99.90;;;;;;5078196;28;20033;-71
2023/08/29 05:23:50;;;;;;;8.88;4.50;;;14.60;99.90;;;;;;5079759;28;20024;-71
2023/08/29 05:26:16;;;;;;;7.57;4.50;;;14.60;99.90;;;;;;5082886;28;20467;-71
2023/08/29 05:28:42;;;;;;;9.52;5.03;;;14.60;99.90;;;;;;5080636;28;20028;-71
2023/08/29 05:31:08;;;;;;;8.75;4.50;;;14.60;99.90;;;;;;5086957;28;20502;-71
2023/08/29 05:33:33;;;;;;;9.20;5.22;;;14.60;99.90;;;;;;5089393;28;20056;-71
2023/08/29 05:35:59;;;;;;;9.38;5.07;;;14.60;99.90;;;;;;5086259;28;20132;-71
2023/08/29 05:38:27;;;;;;;11.32;5.63;;;14.60;99.90;;;;;;5087326;28;20062;-72
2023/08/29 05:40:53;;;;;;;10.55;5.88;;;14.60;99.90;;;;;;5087342;28;20032;-71
2023/08/29 05:43:19;;;;;;;9.30;6.22;;;14.60;99.90;;;;;;5084494;28;20029;-71
2023/08/29 05:45:45;;;;;;;8.73;6.15;;;14.60;99.90;;;;;;5086128;28;20091;-71
2023/08/29 05:48:10;;;;;;;10.02;5.45;;;14.60;99.90;;;;;;5086624;28;20028;-71
2023/08/29 05:50:40;;;;;;;9.82;5.65;;;14.60;99.90;;;;;;5082104;28;20109;-71
2023/08/29 05:53:05;;;;;;;10.00;6.20;;;14.60;99.90;;;;;;5077740;28;20503;-71
2023/08/29 05:55:31;;;;;;;7.32;5.15;;;14.60;99.90;;;;;;5084143;28;20029;-71
2023/08/29 05:57:57;;;;;;;8.25;5.65;;;14.60;99.90;;;;;;5085578;28;20052;-71
2023/08/29 06:00:22;;;;;;;10.23;5.43;;;14.70;99.90;;;;;;5083500;28;20095;-71
2023/08/29 06:02:51;;;;;;;9.85;6.07;;;14.70;99.90;;;;;;5088072;28;20066;-71
2023/08/29 06:05:17;;;;;;;10.80;6.47;;;14.70;99.90;;;;;;5087046;28;20475;-71
2023/08/29 06:07:43;;;;;;;8.27;6.22;;;14.70;99.90;;;;;;5088546;28;20028;-71
2023/08/29 06:10:09;;;;;;;13.43;6.47;;;14.70;99.90;;;;;;5092487;28;20453;-71
2023/08/29 06:12:34;;;;;;;11.57;6.70;;;14.70;99.90;;;;;;5085837;28;20115;-71
2023/08/29 06:15:00;;;;;;;8.70;5.90;;;14.70;99.90;;;;;;5088399;28;20467;-71
2023/08/29 06:17:26;;;;;;;10.70;6.25;;;14.70;99.90;;;;;;5092000;28;20016;-71
2023/08/29 06:19:51;;;;;;;11.13;6.95;;;14.80;99.90;;;;;;5089596;28;20324;-71
2023/08/29 06:22:17;;;;;;;9.77;6.40;;;14.70;99.90;;;;;;5087182;28;20032;-71
2023/08/29 06:24:42;;;;;;;13.98;7.20;;;14.80;99.90;;;;;;5080406;28;20091;-71
2023/08/29 06:27:09;;;;;;;10.70;6.88;;;14.90;99.90;;;;;;5076880;28;20035;-71
2023/08/29 06:29:35;;;;;;;14.02;7.65;;;14.90;99.90;;;;;;5092559;28;20114;-71
2023/08/29 06:32:00;;;;;;;12.00;7.35;;;14.90;99.90;;;;;;5092705;28;20103;-71
2023/08/29 06:34:26;;;;;;;15.23;8.75;;;14.90;99.90;;;;;;5082599;28;20060;-71
2023/08/29 06:36:52;;;;;;;16.58;8.00;;;15.00;99.90;;;;;;5073093;28;20025;-71
2023/08/29 06:39:17;;;;;;;10.48;7.72;;;15.10;99.90;;;;;;5075002;28;20480;-71
2023/08/29 06:41:43;;;;;;;13.32;7.00;;;15.10;99.90;;;;;;5088859;28;20031;-71
2023/08/29 06:44:09;;;;;;;12.23;7.28;;;15.10;99.90;;;;;;5076461;28;20095;-71
2023/08/29 06:46:35;;;;;;;15.95;7.60;;;15.20;99.90;;;;;;5079291;28;20127;-71
2023/08/29 06:49:01;;;;;;;11.88;7.55;;;15.30;99.90;;;;;;5089910;28;20016;-71
2023/08/29 06:51:26;;;;;;;13.85;6.95;;;15.30;99.90;;;;;;5083232;28;20042;-71
2023/08/29 06:53:52;;;;;;;13.05;7.63;;;15.30;99.90;;;;;;5090876;28;20029;-71
2023/08/29 06:56:18;;;;;;;11.32;6.97;;;15.40;99.90;;;;;;5082119;28;20528;-71
2023/08/29 06:58:44;;;;;;;11.93;6.55;;;15.40;99.90;;;;;;5073354;28;20037;-71
2023/08/29 07:01:09;;;;;;;13.00;6.70;;;15.50;99.90;;;;;;5089844;28;20364;-71
2023/08/29 07:03:35;;;;;;;10.88;6.65;;;15.60;99.90;;;;;;5088455;28;20093;-71
2023/08/29 07:06:01;;;;;;;12.38;6.68;;;15.60;99.90;;;;;;5082485;28;20068;-71
2023/08/29 07:08:26;;;;;;;11.25;6.55;;;15.70;99.90;;;;;;5081212;28;20483;-71
2023/08/29 07:10:52;;;;;;;11.82;6.35;;;15.70;99.90;;;;;;5090392;28;20399;-71
2023/08/29 07:13:18;;;;;;;11.40;6.28;;;15.80;99.90;;;;;;5091802;28;20057;-71
2023/08/29 07:15:43;;;;;;;10.52;6.75;;;15.90;99.90;;;;;;5089094;28;20027;-71
2023/08/29 07:18:09;;;;;;;12.30;6.78;;;16.00;99.90;;;;;;5082727;28;20031;-71
2023/08/29 07:20:34;;;;;;;13.32;7.30;;;16.10;99.90;;;;;;5086768;28;20028;-71
2023/08/29 07:23:00;;;;;;;13.13;7.68;;;16.20;99.90;;;;;;5087882;28;20063;-71
2023/08/29 07:25:41;;;;;;;15.73;8.48;;;16.30;99.90;;;;;;5073813;28;20016;-71
2023/08/29 07:28:13;;;;;;;15.95;8.43;;;16.50;99.90;;;;;;5072313;28;20029;-71
2023/08/29 07:30:44;;;;;;;12.00;8.10;;;16.50;99.90;;;;;;5087838;28;20421;-71
2023/08/29 07:33:13;;;;;;;12.68;8.10;;;16.60;99.90;;;;;;5087953;28;20106;-71
2023/08/29 07:35:40;;;;;;;12.73;7.50;;;16.70;99.90;;;;;;5086999;28;20028;-72
2023/08/29 07:38:06;;;;;;;11.38;7.80;;;16.80;99.90;;;;;;5089446;28;20483;-72
2023/08/29 07:40:33;;;;;;;15.40;7.93;;;16.90;99.90;;;;;;5077706;28;20120;-72
2023/08/29 07:43:06;;;;;;;14.10;8.10;;;17.00;99.90;;;;;;5086302;28;20675;-71
2023/08/29 07:45:32;;;;;;;12.65;7.80;;;17.10;99.90;;;;;;5083264;28;20028;-71
2023/08/29 07:47:59;;;;;;;13.00;7.30;;;17.20;99.90;;;;;;5088765;28;20031;-72
2023/08/29 07:50:25;;;;;;;10.80;7.90;;;17.30;99.90;;;;;;5071066;28;20016;-72
2023/08/29 07:52:51;;;;;;;11.20;8.18;;;17.30;99.90;;;;;;5071723;28;20107;-71
2023/08/29 07:55:16;;;;;;;10.98;7.95;;;17.40;99.90;;;;;;5087957;28;20442;-71
2023/08/29 07:57:43;;;;;;;13.32;7.82;;;17.40;99.90;;;;;;5087037;28;20060;-72
2023/08/29 08:00:10;;;;;;;9.82;7.95;;;17.50;99.90;;;;;;5088375;28;20458;-71
2023/08/29 08:02:38;;;;;;;12.18;8.07;;;17.60;99.90;;;;;;5071618;28;20062;-72
2023/08/29 08:05:15;;;;;;;10.48;8.48;;;17.60;99.90;;;;;;5086834;28;20441;-71
2023/08/29 08:07:42;;;;;;;14.70;8.40;;;17.70;99.90;;;;;;5078583;28;20120;-71
2023/08/29 08:10:10;;;;;;;12.05;8.10;;;17.80;99.90;;;;;;5084941;28;20024;-71
2023/08/29 08:12:37;;;;;;;11.32;8.68;;;17.80;99.90;;;;;;5078903;28;20028;-71
2023/08/29 08:15:04;;;;;;;12.57;8.40;;;17.90;99.90;;;;;;5089280;28;20142;-72
2023/08/29 08:17:30;;;;;;;11.25;8.18;;;17.90;99.90;;;;;;5076335;28;20032;-72
2023/08/29 08:19:56;;;;;;;12.73;8.20;;;17.90;99.90;;;;;;5085101;28;20062;-71
2023/08/29 08:22:22;;;;;;;11.50;8.30;;;18.00;99.90;;;;;;5085166;28;20067;-71
2023/08/29 08:24:48;;;;;;;13.43;8.63;;;18.00;99.90;;;;;;5077197;28;20020;-71
2023/08/29 08:27:14;;;;;;;10.23;7.80;;;18.10;99.90;;;;;;5079762;28;20387;-71
2023/08/29 08:29:39;;;;;;;9.10;6.57;;;18.20;99.90;;;;;;5073388;28;20307;-71
2023/08/29 08:32:05;;;;;;;9.50;7.30;;;18.20;99.90;;;;;;5076035;28;20447;-71
2023/08/29 08:34:31;;;;;;;11.52;7.50;;;18.30;99.90;;;;;;5080620;28;20720;-71
2023/08/29 08:36:57;;;;;;;10.30;8.32;;;18.40;99.90;;;;;;5079625;28;20025;-71
2023/08/29 08:39:22;;;;;;;10.90;7.68;;;18.60;99.90;;;;;;5090508;28;20012;-71
2023/08/29 08:41:49;;;;;;;9.40;7.40;;;18.70;99.90;;;;;;5084428;28;20104;-71
2023/08/29 08:44:18;;;;;;;11.80;7.40;;;18.90;99.90;;;;;;5083735;28;20028;-71
2023/08/29 08:46:44;;;;;;;7.97;5.82;;;19.00;99.90;;;;;;5089155;28;20016;-72
2023/08/29 08:49:10;;;;;;;4.80;4.30;;;19.20;99.90;;;;;;5081259;28;20035;-71
2023/08/29 08:51:40;;;;;;;5.22;4.10;;;19.40;99.90;;;;;;5080131;28;20073;-71
2023/08/29 08:54:09;;;;;;;4.82;3.30;;;19.60;99.90;;;;;;5083486;28;20111;-71
2023/08/29 08:56:36;;;;;;;3.83;2.85;;;19.90;99.90;;;;;;5086091;28;20025;-71
2023/08/29 08:59:03;;;;;;;3.75;2.17;;;20.20;99.90;;;;;;5087037;28;20388;-69
2023/08/29 09:01:30;;;;;;;1.75;1.58;;;20.40;99.90;;;;;;5085042;28;20496;-70
2023/08/29 09:03:56;;;;;;;2.97;1.70;;;20.60;99.90;;;;;;5071513;28;20024;-70
2023/08/29 09:06:22;;;;;;;2.47;1.50;;;20.90;99.90;;;;;;5083925;28;20103;-70
2023/08/29 09:08:48;;;;;;;1.73;1.33;;;21.10;99.90;;;;;;5080951;28;20091;-70
2023/08/29 09:11:17;;;;;;;4.43;3.00;;;21.40;99.90;;;;;;5090044;28;20077;-70
2023/08/29 09:13:47;;;;;;;4.32;3.10;;;21.60;99.90;;;;;;5089545;28;20016;-68
2023/08/29 09:16:13;;;;;;;3.35;2.80;;;21.80;99.90;;;;;;5083809;28;20027;-67
2023/08/29 09:18:43;;;;;;;5.10;3.58;;;21.90;99.90;;;;;;5076525;28;20028;-67
2023/08/29 09:21:20;;;;;;;4.85;3.35;;;22.00;99.90;;;;;;5083880;28;20331;-67
2023/08/29 09:23:45;;;;;;;3.60;3.00;;;22.00;99.90;;;;;;5078634;28;20114;-70
2023/08/29 09:26:12;;;;;;;5.18;3.15;;;21.80;99.90;;;;;;5087331;28;20441;-70
2023/08/29 09:28:39;;;;;;;5.57;2.65;;;21.70;99.90;;;;;;5087853;28;20494;-70
2023/08/29 09:31:09;;;;;;;3.60;2.40;;;21.50;99.90;;;;;;5085598;28;20028;-70
2023/08/29 09:33:35;;;;;;;3.08;2.08;;;21.40;99.90;;;;;;5081430;28;20013;-70
2023/08/29 09:36:02;;;;;;;4.03;1.70;;;21.30;99.90;;;;;;5088957;28;20251;-70
2023/08/29 09:38:30;;;;;;;4.70;1.83;;;21.30;99.90;;;;;;5076149;28;20426;-70
2023/08/29 09:40:55;;;;;;;2.92;1.77;;;21.20;99.90;;;;;;5088646;28;20028;-70
2023/08/29 09:43:21;;;;;;;2.97;1.25;;;21.30;99.90;;;;;;5080419;28;20027;-70
2023/08/29 09:45:52;;;;;;;2.33;1.60;;;21.50;99.90;;;;;;5084079;28;20056;-70
2023/08/29 09:48:18;;;;;;;4.38;2.10;;;21.80;99.90;;;;;;5083707;28;20386;-70
2023/08/29 09:50:44;;;;;;;2.50;1.90;;;22.00;99.90;;;;;;5084271;28;20107;-70
2023/08/29 09:53:14;;;;;;;2.20;1.50;;;22.20;99.90;;;;;;5088568;28;20090;-70
2023/08/29 09:55:48;;;;;;;2.65;1.52;;;22.40;99.90;;;;;;5086739;28;20028;-70
2023/08/29 09:58:16;;;;;;;2.92;1.80;;;22.40;99.90;;;;;;5089754;28;20569;-68
2023/08/29 10:00:43;;;;;;;2.08;1.70;;;22.30;99.90;;;;;;5091603;28;20154;-67
2023/08/29 10:03:10;;;;;;;2.03;1.48;;;22.30;99.90;;;;;;5092065;28;20119;-67
2023/08/29 10:05:43;;;;;;;1.45;0.80;;;22.30;99.90;;;;;;5086488;28;20118;-67
2023/08/29 10:08:23;;;;;;;1.23;0.93;;;22.20;99.90;;;;;;5092553;28;20386;-67
2023/08/29 10:10:50;;;;;;;3.65;1.50;;;22.10;99.90;;;;;;5093174;28;20023;-67
2023/08/29 10:13:17;;;;;;;1.95;1.35;;;22.00;99.90;;;;;;5093076;28;20103;-68
2023/08/29 10:15:44;;;;;;;1.92;1.73;;;21.90;99.90;;;;;;5092567;28;20043;-68
2023/08/29 10:18:11;;;;;;;1.38;1.25;;;21.80;99.90;;;;;;5088237;28;20021;-68
2023/08/29 10:20:37;;;;;;;2.50;1.50;;;21.80;99.90;;;;;;5087361;28;20060;-68
2023/08/29 10:23:06;;;;;;;2.47;1.40;;;21.70;99.90;;;;;;5086941;28;20028;-68
2023/08/29 10:25:35;;;;;;;1.85;1.65;;;21.70;99.90;;;;;;5085977;28;20024;-68
2023/08/29 10:28:01;;;;;;;3.88;2.08;;;21.70;99.90;;;;;;5091744;28;20025;-69
2023/08/29 10:30:28;;;;;;;4.65;2.45;;;21.60;99.90;;;;;;5079150;28;20067;-69
2023/08/29 10:32:55;;;;;;;3.88;2.50;;;21.50;99.90;;;;;;5080704;28;20107;-69
2023/08/29 10:35:25;;;;;;;2.72;2.50;;;21.30;99.90;;;;;;5080178;28;20075;-69
2023/08/29 10:37:54;;;;;;;1.83;1.70;;;21.20;99.90;;;;;;5091879;28;20031;-69
2023/08/29 10:40:21;;;;;;;4.20;2.00;;;21.10;99.90;;;;;;5092424;28;20035;-69
2023/08/29 10:42:52;;;;;;;3.33;1.83;;;21.10;99.90;;;;;;5091460;28;20036;-69
2023/08/29 10:45:20;;;;;;;1.88;1.30;;;21.10;99.90;;;;;;5076362;28;20012;-69
2023/08/29 10:47:47;;;;;;;1.20;0.90;;;21.10;99.90;;;;;;5090635;28;20112;-69
2023/08/29 10:50:24;;;;;;;3.42;1.40;;;21.00;99.90;;;;;;5083479;28;20089;-69
2023/08/29 10:52:54;;;;;;;1.88;1.60;;;21.10;99.90;;;;;;5084761;28;20099;-69
2023/08/29 10:55:21;;;;;;;4.53;2.50;;;21.10;99.90;;;;;;5081244;28;20036;-69
2023/08/29 10:57:47;;;;;;;2.65;2.20;;;21.20;99.90;;;;;;5090248;28;20044;-69
2023/08/29 11:00:32;;;;;;;2.85;2.10;;;21.30;99.90;;;;;;5082077;28;20467;-69
2023/08/29 11:02:59;;;;;;;4.75;2.30;;;21.40;99.90;;;;;;5073929;28;20035;-71
2023/08/29 11:05:24;;;;;;;2.83;1.80;;;21.40;99.90;;;;;;5078799;28;20028;-72
2023/08/29 11:07:50;;;;;;;2.20;1.80;;;21.40;99.90;;;;;;5092497;28;20024;-72
2023/08/29 11:10:21;;;;;;;3.83;1.60;;;21.40;99.90;;;;;;5088694;28;20043;-71
2023/08/29 11:13:07;;;;;;;1.63;1.10;;;21.30;99.90;;;;;;5083638;28;20506;-71
2023/08/29 11:15:51;;;;;;;3.25;1.00;;;21.40;99.90;;;;;;5087221;28;20070;-74
2023/08/29 11:18:31;;;;;;;0.85;0.80;;;21.30;99.90;;;;;;5088754;28;20052;-73
2023/08/29 11:20:57;;;;;;;1.10;1.00;;;21.30;99.90;;;;;;5078879;28;20066;-74
2023/08/29 11:23:23;;;;;;;1.77;1.30;;;21.30;99.90;;;;;;5085478;28;20020;-74
2023/08/29 11:25:50;;;;;;;2.80;2.20;;;21.30;99.90;;;;;;5073671;28;20491;-74
2023/08/29 11:28:16;;;;;;;3.53;2.28;;;21.30;99.90;;;;;;5091851;28;20027;-74
2023/08/29 11:30:45;;;;;;;5.03;1.70;;;21.20;99.90;;;;;;5081947;28;20033;-72
2023/08/29 11:33:11;;;;;;;4.95;2.17;;;21.10;99.90;;;;;;5087866;28;20016;-69
2023/08/29 11:35:37;;;;;;;5.25;1.83;;;20.90;99.90;;;;;;5081552;28;20025;-69
2023/08/29 11:38:04;;;;;;;4.30;1.65;;;20.80;99.90;;;;;;5080739;28;20043;-68
2023/08/29 11:40:30;;;;;;;6.18;1.77;;;20.60;99.90;;;;;;5084522;28;20020;-68
2023/08/29 11:42:57;;;;;;;6.78;2.08;;;20.50;99.90;;;;;;5085020;28;20495;-68
2023/08/29 11:45:24;;;;;;;4.30;2.13;;;20.40;99.90;;;;;;5086345;28;20099;-68
2023/08/29 11:47:50;;;;;;;5.50;2.42;;;20.30;99.90;;;;;;5079179;28;20028;-68
2023/08/29 11:50:16;;;;;;;4.60;2.10;;;20.20;99.90;;;;;;5083478;28;20024;-71
2023/08/29 11:52:42;;;;;;;4.93;2.15;;;20.10;99.90;;;;;;5086666;28;20144;-71
2023/08/29 11:55:10;;;;;;;8.60;2.30;;;20.00;99.90;;;;;;5089294;28;20376;-71
2023/08/29 11:57:37;;;;;;;6.40;2.45;;;19.90;99.90;;;;;;5082615;28;20467;-71
2023/08/29 12:00:07;;;;;;;6.80;2.50;;;19.90;99.90;;;;;;5086771;28;20024;-71
2023/08/29 12:02:33;;;;;;;3.80;2.20;;;19.90;99.90;;;;;;5082137;28;20105;-70
2023/08/29 12:04:59;;;;;;;5.60;2.22;;;19.90;99.90;;;;;;5076280;28;20008;-70
2023/08/29 12:07:32;;;;;;;6.70;2.47;;;19.90;99.90;;;;;;5083440;28;20088;-71
2023/08/29 12:10:14;;;;;;;5.65;2.30;;;19.90;99.90;;;;;;5074428;28;20114;-71
2023/08/29 12:12:40;;;;;;;5.97;2.30;;;19.80;99.90;;;;;;5084538;28;20029;-70
2023/08/29 12:15:16;;;;;;;6.15;2.08;;;19.80;99.90;;;;;;5086932;28;20016;-70
2023/08/29 12:17:47;;;;;;;4.43;2.13;;;19.80;99.90;;;;;;5082442;28;20016;-68
2023/08/29 12:20:15;;;;;;;4.63;2.10;;;19.80;99.90;;;;;;5085173;28;20032;-68
2023/08/29 12:22:48;;;;;;;5.45;2.20;;;19.90;99.90;;;;;;5085927;28;20081;-68
2023/08/29 12:25:15;;;;;;;5.85;2.10;;;19.90;99.90;;;;;;5081293;28;20475;-68
2023/08/29 12:27:41;;;;;;;7.15;2.20;;;19.90;99.90;;;;;;5089901;28;20020;-67
2023/08/29 12:30:13;;;;;;;6.05;2.30;;;19.90;99.90;;;;;;5076336;28;20039;-68
2023/08/29 12:32:38;;;;;;;4.93;2.05;;;20.00;99.90;;;;;;5085906;28;20106;-68
2023/08/29 12:35:06;;;;;;;5.00;2.08;;;20.10;99.90;;;;;;5087674;28;20099;-68
2023/08/29 12:37:32;;;;;;;3.72;2.30;;;20.10;99.90;;;;;;5081135;28;20029;-68
2023/08/29 12:39:57;;;;;;;5.22;2.35;;;20.20;99.90;;;;;;5088640;28;20048;-70
2023/08/29 12:42:23;;;;;;;5.15;1.90;;;20.20;99.90;;;;;;5090579;28;20043;-70
2023/08/29 12:44:49;;;;;;;3.60;2.10;;;20.20;99.90;;;;;;5075589;28;20025;-70